sensor_id;sensor_type;location;lat;lon;timestamp;temperature;humidity
18335;DHT22;9293;49.524;10.964;2023-01-23T00:01:38;0.90;99.90
18335;DHT22;9293;49.524;10.964;2023-01-23T00:04:06;0.90;99.90
18335;DHT22;9293;49.524;10.964;2023-01-23T00:06:34;0.90;99.90
18335;DHT22;9293;49.524;10.964;2023-01-23T00:09:02;0.90;99.90
18335;DHT22;9293;49.524;10.964;2023-01-23T00:11:30;1.00;99.90
18335;DHT22;9293;49.524;10.964;2023-01-23T00:14:00;1.00;99.90
18335;DHT22;9293;49.524;10.964;2023-01-23T00:16:31;1.00;99.90
18335;DHT22;9293;49.524;10.964;2023-01-23T00:19:00;1.00;99.90
18335;DHT22;9293;49.524;10.964;2023-01-23T00:21:29;1.00;99.90
18335;DHT22;9293;49.524;10.964;2023-01-23T00:23:58;1.00;99.90
18335;DHT22;9293;49.524;10.964;2023-01-23T00:26:28;1.00;99.90
18335;DHT22;9293;49.524;10.964;2023-01-23T00:29:00;1.00;99.90
18335;DHT22;9293;49.524;10.964;2023-01-23T00:31:32;1.00;99.90
18335;DHT22;9293;49.524;10.964;2023-01-23T00:34:03;1.00;99.90
18335;DHT22;9293;49.524;10.964;2023-01-23T00:36:38;1.00;99.90
18335;DHT22;9293;49.524;10.964;2023-01-23T00:39:24;1.00;99.90
18335;DHT22;9293;49.524;10.964;2023-01-23T00:41:52;1.00;99.90
18335;DHT22;9293;49.524;10.964;2023-01-23T00:44:20;0.90;99.90
18335;DHT22;9293;49.524;10.964;2023-01-23T00:46:48;0.90;99.90
18335;DHT22;9293;49.524;10.964;2023-01-23T00:49:16;1.00;99.90
18335;DHT22;9293;49.524;10.964;2023-01-23T00:51:45;1.00;99.90
18335;DHT22;9293;49.524;10.964;2023-01-23T00:54:13;1.00;99.90
18335;DHT22;9293;49.524;10.964;2023-01-23T00:56:41;1.00;99.90
18335;DHT22;9293;49.524;10.964;2023-01-23T00:59:09;1.00;99.90
18335;DHT22;9293;49.524;10.964;2023-01-23T01:01:38;1.00;99.90
18335;DHT22;9293;49.524;10.964;2023-01-23T01:04:06;1.00;99.90
18335;DHT22;9293;49.524;10.964;2023-01-23T01:06:35;1.10;99.90
18335;DHT22;9293;49.524;10.964;2023-01-23T01:09:03;1.10;99.90
18335;DHT22;9293;49.524;10.964;2023-01-23T01:11:32;1.10;99.90
18335;DHT22;9293;49.524;10.964;2023-01-23T01:14:00;1.00;99.90
18335;DHT22;9293;49.524;10.964;2023-01-23T01:16:28;1.00;99.90
18335;DHT22;9293;49.524;10.964;2023-01-23T01:18:57;1.00;99.90
18335;DHT22;9293;49.524;10.964;2023-01-23T01:21:25;1.00;99.90
18335;DHT22;9293;49.524;10.964;2023-01-23T01:23:53;1.00;99.90
18335;DHT22;9293;49.524;10.964;2023-01-23T01:26:21;1.00;99.90
18335;DHT22;9293;49.524;10.964;2023-01-23T01:28:49;1.00;99.90
18335;DHT22;9293;49.524;10.964;2023-01-23T01:31:17;1.10;99.90
18335;DHT22;9293;49.524;10.964;2023-01-23T01:33:46;1.10;99.90
18335;DHT22;9293;49.524;10.964;2023-01-23T01:36:19;1.10;99.90
18335;DHT22;9293;49.524;10.964;2023-01-23T01:38:47;1.10;99.90
18335;DHT22;9293;49.524;10.964;2023-01-23T01:41:16;1.10;99.90
18335;DHT22;9293;49.524;10.964;2023-01-23T01:43:44;1.00;99.90
18335;DHT22;9293;49.524;10.964;2023-01-23T01:46:19;1.00;99.90
18335;DHT22;9293;49.524;10.964;2023-01-23T01:49:12;1.00;99.90
18335;DHT22;9293;49.524;10.964;2023-01-23T01:51:52;1.10;99.90
18335;DHT22;9293;49.524;10.964;2023-01-23T01:57:07;1.10;99.90
18335;DHT22;9293;49.524;10.964;2023-01-23T02:02:50;1.10;99.90
18335;DHT22;9293;49.524;10.964;2023-01-23T02:05:22;1.10;99.90
18335;DHT22;9293;49.524;10.964;2023-01-23T02:08:15;1.10;99.90
18335;DHT22;9293;49.524;10.964;2023-01-23T02:10:46;1.10;99.90
18335;DHT22;9293;49.524;10.964;2023-01-23T02:13:30;1.10;99.90
18335;DHT22;9293;49.524;10.964;2023-01-23T02:16:09;1.10;99.90
18335;DHT22;9293;49.524;10.964;2023-01-23T02:18:40;1.20;99.90
18335;DHT22;9293;49.524;10.964;2023-01-23T02:21:12;1.20;99.90
18335;DHT22;9293;49.524;10.964;2023-01-23T02:23:51;1.20;99.90
18335;DHT22;9293;49.524;10.964;2023-01-23T02:26:29;1.20;99.90
18335;DHT22;9293;49.524;10.964;2023-01-23T02:28:59;1.10;99.90
18335;DHT22;9293;49.524;10.964;2023-01-23T02:31:32;1.10;99.90
18335;DHT22;9293;49.524;10.964;2023-01-23T02:34:00;1.10;99.90
18335;DHT22;9293;49.524;10.964;2023-01-23T02:36:30;1.10;99.90
18335;DHT22;9293;49.524;10.964;2023-01-23T02:39:04;1.00;99.90
18335;DHT22;9293;49.524;10.964;2023-01-23T02:41:48;1.10;99.90
18335;DHT22;9293;49.524;10.964;2023-01-23T02:44:24;1.00;99.90
18335;DHT22;9293;49.524;10.964;2023-01-23T02:47:04;1.10;99.90
18335;DHT22;9293;49.524;10.964;2023-01-23T02:49:34;1.10;99.90
18335;DHT22;9293;49.524;10.964;2023-01-23T02:52:04;1.10;99.90
18335;DHT22;9293;49.524;10.964;2023-01-23T02:54:35;1.10;99.90
18335;DHT22;9293;49.524;10.964;2023-01-23T02:57:03;1.10;99.90
18335;DHT22;9293;49.524;10.964;2023-01-23T02:59:31;1.00;99.90
18335;DHT22;9293;49.524;10.964;2023-01-23T03:02:19;1.00;99.90
18335;DHT22;9293;49.524;10.964;2023-01-23T03:04:51;1.00;99.90
18335;DHT22;9293;49.524;10.964;2023-01-23T03:07:22;0.90;99.90
18335;DHT22;9293;49.524;10.964;2023-01-23T03:09:52;0.90;99.90
18335;DHT22;9293;49.524;10.964;2023-01-23T03:12:20;1.00;99.90
18335;DHT22;9293;49.524;10.964;2023-01-23T03:14:48;1.00;99.90
18335;DHT22;9293;49.524;10.964;2023-01-23T03:17:21;1.00;99.90
18335;DHT22;9293;49.524;10.964;2023-01-23T03:19:49;1.00;99.90
18335;DHT22;9293;49.524;10.964;2023-01-23T03:22:17;0.90;99.90
18335;DHT22;9293;49.524;10.964;2023-01-23T03:24:46;0.90;99.90
18335;DHT22;9293;49.524;10.964;2023-01-23T03:27:14;0.90;99.90
18335;DHT22;9293;49.524;10.964;2023-01-23T03:29:46;0.90;99.90
18335;DHT22;9293;49.524;10.964;2023-01-23T03:32:33;0.90;99.90
18335;DHT22;9293;49.524;10.964;2023-01-23T03:35:01;1.00;99.90
18335;DHT22;9293;49.524;10.964;2023-01-23T03:37:29;1.00;99.90
18335;DHT22;9293;49.524;10.964;2023-01-23T03:39:59;1.00;99.90
18335;DHT22;9293;49.524;10.964;2023-01-23T03:42:49;1.00;99.90
18335;DHT22;9293;49.524;10.964;2023-01-23T03:45:25;1.00;99.90
18335;DHT22;9293;49.524;10.964;2023-01-23T03:47:53;1.10;99.90
18335;DHT22;9293;49.524;10.964;2023-01-23T03:50:22;1.10;99.90
18335;DHT22;9293;49.524;10.964;2023-01-23T03:52:50;1.10;99.90
18335;DHT22;9293;49.524;10.964;2023-01-23T03:55:19;1.10;99.90
18335;DHT22;9293;49.524;10.964;2023-01-23T03:57:47;1.00;99.90
18335;DHT22;9293;49.524;10.964;2023-01-23T04:00:15;1.00;99.90
18335;DHT22;9293;49.524;10.964;2023-01-23T04:02:55;1.10;99.90
18335;DHT22;9293;49.524;10.964;2023-01-23T04:05:23;1.10;99.90
18335;DHT22;9293;49.524;10.964;2023-01-23T04:07:51;1.10;99.90
18335;DHT22;9293;49.524;10.964;2023-01-23T04:10:19;1.10;99.90
18335;DHT22;9293;49.524;10.964;2023-01-23T04:12:52;1.10;99.90
18335;DHT22;9293;49.524;10.964;2023-01-23T04:15:21;1.00;99.90
18335;DHT22;9293;49.524;10.964;2023-01-23T04:17:53;1.00;99.90
18335;DHT22;9293;49.524;10.964;2023-01-23T04:20:23;1.00;99.90
18335;DHT22;9293;49.524;10.964;2023-01-23T04:22:52;1.00;99.90
18335;DHT22;9293;49.524;10.964;2023-01-23T04:25:21;1.10;99.90
18335;DHT22;9293;49.524;10.964;2023-01-23T04:27:49;1.10;99.90
18335;DHT22;9293;49.524;10.964;2023-01-23T04:30:17;1.10;99.90
18335;DHT22;9293;49.524;10.964;2023-01-23T04:32:46;1.10;99.90
18335;DHT22;9293;49.524;10.964;2023-01-23T04:35:17;1.10;99.90
18335;DHT22;9293;49.524;10.964;2023-01-23T04:37:45;1.10;99.90
18335;DHT22;9293;49.524;10.964;2023-01-23T04:40:13;1.20;99.90
18335;DHT22;9293;49.524;10.964;2023-01-23T04:42:53;1.20;99.90
18335;DHT22;9293;49.524;10.964;2023-01-23T04:45:35;1.20;99.90
18335;DHT22;9293;49.524;10.964;2023-01-23T04:48:36;1.20;99.90
18335;DHT22;9293;49.524;10.964;2023-01-23T04:51:04;1.20;99.90
18335;DHT22;9293;49.524;10.964;2023-01-23T04:53:34;1.20;99.90
18335;DHT22;9293;49.524;10.964;2023-01-23T04:56:02;1.10;99.90
18335;DHT22;9293;49.524;10.964;2023-01-23T04:58:31;1.10;99.90
18335;DHT22;9293;49.524;10.964;2023-01-23T05:01:05;1.10;99.90
18335;DHT22;9293;49.524;10.964;2023-01-23T05:03:34;1.10;99.90
18335;DHT22;9293;49.524;10.964;2023-01-23T05:06:06;1.10;99.90
18335;DHT22;9293;49.524;10.964;2023-01-23T05:08:37;1.10;99.90
18335;DHT22;9293;49.524;10.964;2023-01-23T05:11:13;1.10;99.90
18335;DHT22;9293;49.524;10.964;2023-01-23T05:13:41;1.10;99.90
18335;DHT22;9293;49.524;10.964;2023-01-23T05:16:10;1.10;99.90
18335;DHT22;9293;49.524;10.964;2023-01-23T05:19:01;1.10;99.90
18335;DHT22;9293;49.524;10.964;2023-01-23T05:21:30;1.10;99.90
18335;DHT22;9293;49.524;10.964;2023-01-23T05:23:59;1.10;99.90
18335;DHT22;9293;49.524;10.964;2023-01-23T05:26:27;1.10;99.90
18335;DHT22;9293;49.524;10.964;2023-01-23T05:28:55;1.10;99.90
18335;DHT22;9293;49.524;10.964;2023-01-23T05:31:24;1.10;99.90
18335;DHT22;9293;49.524;10.964;2023-01-23T05:34:12;1.10;99.90
18335;DHT22;9293;49.524;10.964;2023-01-23T05:36:40;1.10;99.90
18335;DHT22;9293;49.524;10.964;2023-01-23T05:39:10;1.10;99.90
18335;DHT22;9293;49.524;10.964;2023-01-23T05:41:41;1.10;99.90
18335;DHT22;9293;49.524;10.964;2023-01-23T05:44:21;1.10;99.90
18335;DHT22;9293;49.524;10.964;2023-01-23T05:46:52;1.00;99.90
18335;DHT22;9293;49.524;10.964;2023-01-23T05:49:20;1.00;99.90
18335;DHT22;9293;49.524;10.964;2023-01-23T05:51:50;1.00;99.90
18335;DHT22;9293;49.524;10.964;2023-01-23T05:54:18;1.00;99.90
18335;DHT22;9293;49.524;10.964;2023-01-23T05:56:46;1.00;99.90
18335;DHT22;9293;49.524;10.964;2023-01-23T05:59:32;1.00;99.90
18335;DHT22;9293;49.524;10.964;2023-01-23T06:02:30;1.00;99.90
18335;DHT22;9293;49.524;10.964;2023-01-23T06:05:21;1.00;99.90
18335;DHT22;9293;49.524;10.964;2023-01-23T06:08:03;1.00;99.90
18335;DHT22;9293;49.524;10.964;2023-01-23T06:10:31;1.00;99.90
18335;DHT22;9293;49.524;10.964;2023-01-23T06:12:59;1.00;99.90
18335;DHT22;9293;49.524;10.964;2023-01-23T06:15:28;1.00;99.90
18335;DHT22;9293;49.524;10.964;2023-01-23T06:17:59;0.90;99.90
18335;DHT22;9293;49.524;10.964;2023-01-23T06:20:27;0.90;99.90
18335;DHT22;9293;49.524;10.964;2023-01-23T06:22:56;0.90;99.90
18335;DHT22;9293;49.524;10.964;2023-01-23T06:25:25;0.90;99.90
18335;DHT22;9293;49.524;10.964;2023-01-23T06:27:56;0.90;99.90
18335;DHT22;9293;49.524;10.964;2023-01-23T06:30:27;1.00;99.90
18335;DHT22;9293;49.524;10.964;2023-01-23T06:32:56;1.00;99.90
18335;DHT22;9293;49.524;10.964;2023-01-23T06:35:31;1.00;99.90
18335;DHT22;9293;49.524;10.964;2023-01-23T06:38:01;1.00;99.90
18335;DHT22;9293;49.524;10.964;2023-01-23T06:40:32;1.00;99.90
18335;DHT22;9293;49.524;10.964;2023-01-23T06:43:21;1.00;99.90
18335;DHT22;9293;49.524;10.964;2023-01-23T06:45:50;1.00;99.90
18335;DHT22;9293;49.524;10.964;2023-01-23T06:48:21;1.00;99.90
18335;DHT22;9293;49.524;10.964;2023-01-23T06:50:49;1.00;99.90
18335;DHT22;9293;49.524;10.964;2023-01-23T06:53:17;1.00;99.90
18335;DHT22;9293;49.524;10.964;2023-01-23T06:55:48;1.00;99.90
18335;DHT22;9293;49.524;10.964;2023-01-23T06:58:17;1.00;99.90
18335;DHT22;9293;49.524;10.964;2023-01-23T07:00:46;1.00;99.90
18335;DHT22;9293;49.524;10.964;2023-01-23T07:03:35;1.00;99.90
18335;DHT22;9293;49.524;10.964;2023-01-23T07:06:03;1.10;99.90
18335;DHT22;9293;49.524;10.964;2023-01-23T07:08:34;1.10;99.90
18335;DHT22;9293;49.524;10.964;2023-01-23T07:11:13;1.10;99.90
18335;DHT22;9293;49.524;10.964;2023-01-23T07:13:42;1.10;99.90
18335;DHT22;9293;49.524;10.964;2023-01-23T07:16:12;1.20;99.90
18335;DHT22;9293;49.524;10.964;2023-01-23T07:18:41;1.20;99.90
18335;DHT22;9293;49.524;10.964;2023-01-23T07:21:09;1.20;99.90
18335;DHT22;9293;49.524;10.964;2023-01-23T07:23:37;1.30;99.90
18335;DHT22;9293;49.524;10.964;2023-01-23T07:26:05;1.30;99.90
18335;DHT22;9293;49.524;10.964;2023-01-23T07:31:19;1.30;99.90
18335;DHT22;9293;49.524;10.964;2023-01-23T07:33:47;1.30;99.90
18335;DHT22;9293;49.524;10.964;2023-01-23T07:36:15;1.30;99.90
18335;DHT22;9293;49.524;10.964;2023-01-23T07:38:45;1.30;99.90
18335;DHT22;9293;49.524;10.964;2023-01-23T07:41:13;1.20;99.90
18335;DHT22;9293;49.524;10.964;2023-01-23T07:43:41;1.30;99.90
18335;DHT22;9293;49.524;10.964;2023-01-23T07:46:09;1.30;99.90
18335;DHT22;9293;49.524;10.964;2023-01-23T07:48:37;1.30;99.90
18335;DHT22;9293;49.524;10.964;2023-01-23T07:51:05;1.30;99.90
18335;DHT22;9293;49.524;10.964;2023-01-23T07:53:37;1.30;99.90
18335;DHT22;9293;49.524;10.964;2023-01-23T07:56:05;1.30;99.90
18335;DHT22;9293;49.524;10.964;2023-01-23T07:58:33;1.30;99.90
18335;DHT22;9293;49.524;10.964;2023-01-23T08:01:08;1.30;99.90
18335;DHT22;9293;49.524;10.964;2023-01-23T08:03:36;1.30;99.90
18335;DHT22;9293;49.524;10.964;2023-01-23T08:06:05;1.30;99.90
18335;DHT22;9293;49.524;10.964;2023-01-23T08:08:33;1.30;99.90
18335;DHT22;9293;49.524;10.964;2023-01-23T08:11:10;1.30;99.90
18335;DHT22;9293;49.524;10.964;2023-01-23T08:13:39;1.30;99.90
18335;DHT22;9293;49.524;10.964;2023-01-23T08:16:07;1.20;99.90
18335;DHT22;9293;49.524;10.964;2023-01-23T08:18:39;1.30;99.90
18335;DHT22;9293;49.524;10.964;2023-01-23T08:21:08;1.30;99.90
18335;DHT22;9293;49.524;10.964;2023-01-23T08:23:36;1.40;99.90
18335;DHT22;9293;49.524;10.964;2023-01-23T08:26:06;1.40;99.90
18335;DHT22;9293;49.524;10.964;2023-01-23T08:28:35;1.50;99.90
18335;DHT22;9293;49.524;10.964;2023-01-23T08:31:06;1.50;99.90
18335;DHT22;9293;49.524;10.964;2023-01-23T08:33:35;1.50;99.90
18335;DHT22;9293;49.524;10.964;2023-01-23T08:36:05;1.50;99.90
18335;DHT22;9293;49.524;10.964;2023-01-23T08:38:36;1.50;99.90
18335;DHT22;9293;49.524;10.964;2023-01-23T08:41:05;1.60;99.90
18335;DHT22;9293;49.524;10.964;2023-01-23T08:43:33;1.60;99.90
18335;DHT22;9293;49.524;10.964;2023-01-23T08:46:01;1.60;99.90
18335;DHT22;9293;49.524;10.964;2023-01-23T08:48:29;1.60;99.90
18335;DHT22;9293;49.524;10.964;2023-01-23T08:50:59;1.50;99.90
18335;DHT22;9293;49.524;10.964;2023-01-23T08:53:29;1.60;99.90
18335;DHT22;9293;49.524;10.964;2023-01-23T08:56:03;1.60;99.90
18335;DHT22;9293;49.524;10.964;2023-01-23T08:58:31;1.70;99.90
18335;DHT22;9293;49.524;10.964;2023-01-23T09:00:59;1.80;99.90
18335;DHT22;9293;49.524;10.964;2023-01-23T09:03:27;1.80;99.90
18335;DHT22;9293;49.524;10.964;2023-01-23T09:05:59;1.80;99.90
18335;DHT22;9293;49.524;10.964;2023-01-23T09:08:27;1.80;99.90
18335;DHT22;9293;49.524;10.964;2023-01-23T09:11:00;1.80;99.90
18335;DHT22;9293;49.524;10.964;2023-01-23T09:13:28;1.80;99.90
18335;DHT22;9293;49.524;10.964;2023-01-23T09:15:57;1.80;99.90
18335;DHT22;9293;49.524;10.964;2023-01-23T09:18:27;1.80;99.90
18335;DHT22;9293;49.524;10.964;2023-01-23T09:20:58;1.80;99.90
18335;DHT22;9293;49.524;10.964;2023-01-23T09:23:28;1.90;99.90
18335;DHT22;9293;49.524;10.964;2023-01-23T09:26:02;1.90;99.90
18335;DHT22;9293;49.524;10.964;2023-01-23T09:28:30;2.00;99.90
18335;DHT22;9293;49.524;10.964;2023-01-23T09:31:05;2.00;99.90
18335;DHT22;9293;49.524;10.964;2023-01-23T09:33:34;2.00;99.90
18335;DHT22;9293;49.524;10.964;2023-01-23T09:36:03;2.00;99.90
18335;DHT22;9293;49.524;10.964;2023-01-23T09:38:31;2.10;99.90
18335;DHT22;9293;49.524;10.964;2023-01-23T09:41:16;2.10;99.90
18335;DHT22;9293;49.524;10.964;2023-01-23T09:44:09;2.10;99.90
18335;DHT22;9293;49.524;10.964;2023-01-23T09:46:50;2.10;99.90
18335;DHT22;9293;49.524;10.964;2023-01-23T09:49:26;2.10;99.90
18335;DHT22;9293;49.524;10.964;2023-01-23T09:54:57;2.10;99.90
18335;DHT22;9293;49.524;10.964;2023-01-23T09:57:35;2.20;99.90
18335;DHT22;9293;49.524;10.964;2023-01-23T10:00:23;2.20;99.90
18335;DHT22;9293;49.524;10.964;2023-01-23T10:02:52;2.40;99.90
18335;DHT22;9293;49.524;10.964;2023-01-23T10:05:43;2.50;99.90
18335;DHT22;9293;49.524;10.964;2023-01-23T10:11:10;2.60;99.90
18335;DHT22;9293;49.524;10.964;2023-01-23T10:17:11;2.50;99.90
18335;DHT22;9293;49.524;10.964;2023-01-23T10:25:52;2.60;99.90
18335;DHT22;9293;49.524;10.964;2023-01-23T10:28:32;2.70;99.90
18335;DHT22;9293;49.524;10.964;2023-01-23T10:31:37;2.80;99.90
18335;DHT22;9293;49.524;10.964;2023-01-23T10:36:45;3.00;99.90
18335;DHT22;9293;49.524;10.964;2023-01-23T10:39:39;3.10;99.90
18335;DHT22;9293;49.524;10.964;2023-01-23T10:42:11;3.20;99.90
18335;DHT22;9293;49.524;10.964;2023-01-23T10:44:40;3.40;99.90
18335;DHT22;9293;49.524;10.964;2023-01-23T10:50:04;3.80;99.90
18335;DHT22;9293;49.524;10.964;2023-01-23T10:52:44;4.00;99.90
18335;DHT22;9293;49.524;10.964;2023-01-23T10:55:32;4.30;99.90
18335;DHT22;9293;49.524;10.964;2023-01-23T10:58:00;4.50;99.90
18335;DHT22;9293;49.524;10.964;2023-01-23T11:06:15;4.30;99.90
18335;DHT22;9293;49.524;10.964;2023-01-23T11:08:54;4.10;99.90
18335;DHT22;9293;49.524;10.964;2023-01-23T11:11:28;3.90;99.90
18335;DHT22;9293;49.524;10.964;2023-01-23T11:16:36;3.70;99.90
18335;DHT22;9293;49.524;10.964;2023-01-23T11:21:37;3.60;99.90
18335;DHT22;9293;49.524;10.964;2023-01-23T11:29:54;3.50;99.90
18335;DHT22;9293;49.524;10.964;2023-01-23T11:32:28;3.60;99.90
18335;DHT22;9293;49.524;10.964;2023-01-23T11:35:15;3.70;99.90
18335;DHT22;9293;49.524;10.964;2023-01-23T11:37:46;3.90;99.90
18335;DHT22;9293;49.524;10.964;2023-01-23T11:40:18;4.00;99.90
18335;DHT22;9293;49.524;10.964;2023-01-23T11:42:47;4.00;99.90
18335;DHT22;9293;49.524;10.964;2023-01-23T11:48:40;4.00;99.90
18335;DHT22;9293;49.524;10.964;2023-01-23T11:57:06;3.80;99.90
18335;DHT22;9293;49.524;10.964;2023-01-23T11:59:44;3.90;99.90
18335;DHT22;9293;49.524;10.964;2023-01-23T12:05:48;3.80;99.90
18335;DHT22;9293;49.524;10.964;2023-01-23T12:25:03;4.00;99.90
18335;DHT22;9293;49.524;10.964;2023-01-23T12:30:30;3.90;99.90
18335;DHT22;9293;49.524;10.964;2023-01-23T12:38:30;3.80;99.90
18335;DHT22;9293;49.524;10.964;2023-01-23T12:41:06;3.90;99.90
18335;DHT22;9293;49.524;10.964;2023-01-23T12:48:52;4.00;99.90
18335;DHT22;9293;49.524;10.964;2023-01-23T12:51:33;4.10;99.90
18335;DHT22;9293;49.524;10.964;2023-01-23T12:54:11;4.20;99.90
18335;DHT22;9293;49.524;10.964;2023-01-23T12:56:44;4.40;99.90
18335;DHT22;9293;49.524;10.964;2023-01-23T13:02:10;4.50;99.90
18335;DHT22;9293;49.524;10.964;2023-01-23T13:04:59;4.50;99.90
18335;DHT22;9293;49.524;10.964;2023-01-23T13:07:39;4.50;99.90
18335;DHT22;9293;49.524;10.964;2023-01-23T13:13:32;4.50;99.90
18335;DHT22;9293;49.524;10.964;2023-01-23T13:16:08;4.40;99.90
18335;DHT22;9293;49.524;10.964;2023-01-23T13:18:58;4.40;99.90
18335;DHT22;9293;49.524;10.964;2023-01-23T13:22:10;4.30;99.90
18335;DHT22;9293;49.524;10.964;2023-01-23T13:27:48;4.30;99.90
18335;DHT22;9293;49.524;10.964;2023-01-23T13:35:51;4.30;99.90
18335;DHT22;9293;49.524;10.964;2023-01-23T13:43:53;4.40;99.90
18335;DHT22;9293;49.524;10.964;2023-01-23T13:48:57;4.50;99.90
18335;DHT22;9293;49.524;10.964;2023-01-23T13:52:00;4.50;99.90
18335;DHT22;9293;49.524;10.964;2023-01-23T13:54:41;4.60;99.90
18335;DHT22;9293;49.524;10.964;2023-01-23T13:57:41;4.60;99.90
18335;DHT22;9293;49.524;10.964;2023-01-23T14:00:22;4.70;99.90
18335;DHT22;9293;49.524;10.964;2023-01-23T14:03:13;4.70;99.90
18335;DHT22;9293;49.524;10.964;2023-01-23T14:06:14;4.60;99.90
18335;DHT22;9293;49.524;10.964;2023-01-23T14:08:55;4.50;99.90
18335;DHT22;9293;49.524;10.964;2023-01-23T14:11:36;4.50;99.90
18335;DHT22;9293;49.524;10.964;2023-01-23T14:14:17;4.40;99.90
18335;DHT22;9293;49.524;10.964;2023-01-23T14:17:17;4.40;99.90
18335;DHT22;9293;49.524;10.964;2023-01-23T14:20:01;4.40;99.90
18335;DHT22;9293;49.524;10.964;2023-01-23T14:22:43;4.40;99.90
18335;DHT22;9293;49.524;10.964;2023-01-23T14:25:15;4.40;99.90
18335;DHT22;9293;49.524;10.964;2023-01-23T14:27:48;4.30;99.90
18335;DHT22;9293;49.524;10.964;2023-01-23T14:30:25;4.30;99.90
18335;DHT22;9293;49.524;10.964;2023-01-23T14:32:57;4.20;99.90
18335;DHT22;9293;49.524;10.964;2023-01-23T14:35:30;4.20;99.90
18335;DHT22;9293;49.524;10.964;2023-01-23T14:38:03;4.20;99.90
18335;DHT22;9293;49.524;10.964;2023-01-23T14:40:32;4.20;99.90
18335;DHT22;9293;49.524;10.964;2023-01-23T14:43:20;4.20;99.90
18335;DHT22;9293;49.524;10.964;2023-01-23T14:45:58;4.20;99.90
18335;DHT22;9293;49.524;10.964;2023-01-23T14:48:27;4.20;99.90
18335;DHT22;9293;49.524;10.964;2023-01-23T14:54:05;4.10;99.90
18335;DHT22;9293;49.524;10.964;2023-01-23T14:56:48;4.00;99.90
18335;DHT22;9293;49.524;10.964;2023-01-23T14:59:34;3.90;99.90
18335;DHT22;9293;49.524;10.964;2023-01-23T15:08:01;3.80;99.90
18335;DHT22;9293;49.524;10.964;2023-01-23T15:10:44;3.80;99.90
18335;DHT22;9293;49.524;10.964;2023-01-23T15:13:33;3.70;99.90
18335;DHT22;9293;49.524;10.964;2023-01-23T15:16:04;3.70;99.90
18335;DHT22;9293;49.524;10.964;2023-01-23T15:18:34;3.70;99.90
18335;DHT22;9293;49.524;10.964;2023-01-23T15:21:09;3.70;99.90
18335;DHT22;9293;49.524;10.964;2023-01-23T15:24:18;3.70;99.90
18335;DHT22;9293;49.524;10.964;2023-01-23T15:27:03;3.70;99.90
18335;DHT22;9293;49.524;10.964;2023-01-23T15:29:32;3.70;99.90
18335;DHT22;9293;49.524;10.964;2023-01-23T15:32:00;3.70;99.90
18335;DHT22;9293;49.524;10.964;2023-01-23T15:34:38;3.70;99.90
18335;DHT22;9293;49.524;10.964;2023-01-23T15:44:41;3.50;99.90
18335;DHT22;9293;49.524;10.964;2023-01-23T15:47:09;3.50;99.90
18335;DHT22;9293;49.524;10.964;2023-01-23T15:49:38;3.50;99.90
18335;DHT22;9293;49.524;10.964;2023-01-23T15:55:13;3.40;99.90
18335;DHT22;9293;49.524;10.964;2023-01-23T15:57:42;3.40;99.90
18335;DHT22;9293;49.524;10.964;2023-01-23T16:00:27;3.30;99.90
18335;DHT22;9293;49.524;10.964;2023-01-23T16:02:56;3.30;99.90
18335;DHT22;9293;49.524;10.964;2023-01-23T16:05:31;3.30;99.90
18335;DHT22;9293;49.524;10.964;2023-01-23T16:08:00;3.20;99.90
18335;DHT22;9293;49.524;10.964;2023-01-23T16:10:36;3.00;99.90
18335;DHT22;9293;49.524;10.964;2023-01-23T16:13:04;2.90;99.90
18335;DHT22;9293;49.524;10.964;2023-01-23T16:15:34;2.80;99.90
18335;DHT22;9293;49.524;10.964;2023-01-23T16:18:04;2.80;99.90
18335;DHT22;9293;49.524;10.964;2023-01-23T16:20:38;2.70;99.90
18335;DHT22;9293;49.524;10.964;2023-01-23T16:23:17;2.70;99.90
18335;DHT22;9293;49.524;10.964;2023-01-23T16:25:45;2.60;99.90
18335;DHT22;9293;49.524;10.964;2023-01-23T16:28:16;2.50;99.90
18335;DHT22;9293;49.524;10.964;2023-01-23T16:30:46;2.50;99.90
18335;DHT22;9293;49.524;10.964;2023-01-23T16:33:14;2.40;99.90
18335;DHT22;9293;49.524;10.964;2023-01-23T16:35:43;2.40;99.90
18335;DHT22;9293;49.524;10.964;2023-01-23T16:38:26;2.40;99.90
18335;DHT22;9293;49.524;10.964;2023-01-23T16:40:55;2.40;99.90
18335;DHT22;9293;49.524;10.964;2023-01-23T16:43:24;2.40;99.90
18335;DHT22;9293;49.524;10.964;2023-01-23T16:45:52;2.30;99.90
18335;DHT22;9293;49.524;10.964;2023-01-23T16:48:23;2.30;99.90
18335;DHT22;9293;49.524;10.964;2023-01-23T16:51:13;2.30;99.90
18335;DHT22;9293;49.524;10.964;2023-01-23T16:53:50;2.30;99.90
18335;DHT22;9293;49.524;10.964;2023-01-23T16:56:21;2.30;99.90
18335;DHT22;9293;49.524;10.964;2023-01-23T16:58:51;2.40;99.90
18335;DHT22;9293;49.524;10.964;2023-01-23T17:01:21;2.40;99.90
18335;DHT22;9293;49.524;10.964;2023-01-23T17:03:58;2.40;99.90
18335;DHT22;9293;49.524;10.964;2023-01-23T17:06:30;2.40;99.90
18335;DHT22;9293;49.524;10.964;2023-01-23T17:09:00;2.40;99.90
18335;DHT22;9293;49.524;10.964;2023-01-23T17:11:37;2.30;99.90
18335;DHT22;9293;49.524;10.964;2023-01-23T17:14:22;2.40;99.90
18335;DHT22;9293;49.524;10.964;2023-01-23T17:16:52;2.40;99.90
18335;DHT22;9293;49.524;10.964;2023-01-23T17:19:29;2.40;99.90
18335;DHT22;9293;49.524;10.964;2023-01-23T17:21:59;2.40;99.90
18335;DHT22;9293;49.524;10.964;2023-01-23T17:24:32;2.50;99.90
18335;DHT22;9293;49.524;10.964;2023-01-23T17:27:00;2.50;99.90
18335;DHT22;9293;49.524;10.964;2023-01-23T17:29:31;2.60;99.90
18335;DHT22;9293;49.524;10.964;2023-01-23T17:31:59;2.60;99.90
18335;DHT22;9293;49.524;10.964;2023-01-23T17:34:37;2.60;99.90
18335;DHT22;9293;49.524;10.964;2023-01-23T17:37:20;2.70;99.90
18335;DHT22;9293;49.524;10.964;2023-01-23T17:39:48;2.70;99.90
18335;DHT22;9293;49.524;10.964;2023-01-23T17:42:20;2.70;99.90
18335;DHT22;9293;49.524;10.964;2023-01-23T17:44:53;2.70;99.90
18335;DHT22;9293;49.524;10.964;2023-01-23T17:47:21;2.70;99.90
18335;DHT22;9293;49.524;10.964;2023-01-23T17:49:50;2.70;99.90
18335;DHT22;9293;49.524;10.964;2023-01-23T17:52:18;2.60;99.90
18335;DHT22;9293;49.524;10.964;2023-01-23T17:54:48;2.60;99.90
18335;DHT22;9293;49.524;10.964;2023-01-23T17:57:16;2.60;99.90
18335;DHT22;9293;49.524;10.964;2023-01-23T17:59:49;2.60;99.90
18335;DHT22;9293;49.524;10.964;2023-01-23T18:02:26;2.60;99.90
18335;DHT22;9293;49.524;10.964;2023-01-23T18:04:57;2.60;99.90
18335;DHT22;9293;49.524;10.964;2023-01-23T18:07:27;2.60;99.90
18335;DHT22;9293;49.524;10.964;2023-01-23T18:09:55;2.60;99.90
18335;DHT22;9293;49.524;10.964;2023-01-23T18:12:40;2.60;99.90
18335;DHT22;9293;49.524;10.964;2023-01-23T18:15:18;2.70;99.90
18335;DHT22;9293;49.524;10.964;2023-01-23T18:20:31;2.60;99.90
18335;DHT22;9293;49.524;10.964;2023-01-23T18:23:00;2.70;99.90
18335;DHT22;9293;49.524;10.964;2023-01-23T18:25:28;2.70;99.90
18335;DHT22;9293;49.524;10.964;2023-01-23T18:28:00;2.70;99.90
18335;DHT22;9293;49.524;10.964;2023-01-23T18:30:36;2.70;99.90
18335;DHT22;9293;49.524;10.964;2023-01-23T18:33:39;2.70;99.90
18335;DHT22;9293;49.524;10.964;2023-01-23T18:36:33;2.70;99.90
18335;DHT22;9293;49.524;10.964;2023-01-23T18:42:16;2.70;99.90